Terminal Aerodrome Forecast
Issued by NWS

Home | Current Version | Previous Version | Text Only | Print | Product List | Glossary On
Versions: 1 2 3 4 5 6 7 8 9 10 11 12 13 14 15 16 17
000
FTUS44 KSJT 162300
TAFBBD
TAF
KBBD 162335Z 1700/1724 VRB05KT P6SM SCT035 BKN050
     FM170200 VRB03KT P6SM BKN100
     FM171200 VRB04KT P6SM BKN018
     FM171500 VRB05KT P6SM SCT035=

USA.gov is the U.S. government's official web portal to all federal, state and local government web resources and services.